sensor_id;sensor_type;location;lat;lon;timestamp;P1;durP1;ratioP1;P2;durP2;ratioP2
41446;SDS011;27185;52.040;4.490;2023-07-08T00:01:41;3.28;;;1.45;;
41446;SDS011;27185;52.040;4.490;2023-07-08T00:04:27;3.90;;;1.60;;
41446;SDS011;27185;52.040;4.490;2023-07-08T00:07:12;3.25;;;1.70;;
41446;SDS011;27185;52.040;4.490;2023-07-08T00:10:22;2.60;;;1.35;;
41446;SDS011;27185;52.040;4.490;2023-07-08T00:13:10;4.32;;;1.83;;
41446;SDS011;27185;52.040;4.490;2023-07-08T00:15:56;3.20;;;1.35;;
41446;SDS011;27185;52.040;4.490;2023-07-08T00:18:41;4.47;;;1.48;;
41446;SDS011;27185;52.040;4.490;2023-07-08T00:21:27;5.78;;;1.83;;
41446;SDS011;27185;52.040;4.490;2023-07-08T00:24:13;6.07;;;2.33;;
41446;SDS011;27185;52.040;4.490;2023-07-08T00:26:59;5.22;;;1.67;;
41446;SDS011;27185;52.040;4.490;2023-07-08T00:29:44;5.10;;;1.65;;
41446;SDS011;27185;52.040;4.490;2023-07-08T00:32:30;3.45;;;1.48;;
41446;SDS011;27185;52.040;4.490;2023-07-08T00:35:15;3.47;;;1.70;;
41446;SDS011;27185;52.040;4.490;2023-07-08T00:38:02;3.00;;;1.30;;
41446;SDS011;27185;52.040;4.490;2023-07-08T00:43:52;4.35;;;1.73;;
41446;SDS011;27185;52.040;4.490;2023-07-08T00:49:45;2.90;;;1.83;;
41446;SDS011;27185;52.040;4.490;2023-07-08T00:52:35;5.00;;;1.85;;
41446;SDS011;27185;52.040;4.490;2023-07-08T00:55:21;7.68;;;1.77;;
41446;SDS011;27185;52.040;4.490;2023-07-08T00:58:06;3.85;;;1.73;;
41446;SDS011;27185;52.040;4.490;2023-07-08T01:00:52;3.65;;;1.60;;
41446;SDS011;27185;52.040;4.490;2023-07-08T01:03:42;2.85;;;1.65;;
41446;SDS011;27185;52.040;4.490;2023-07-08T01:06:35;3.22;;;1.92;;
41446;SDS011;27185;52.040;4.490;2023-07-08T01:09:29;3.90;;;1.80;;
41446;SDS011;27185;52.040;4.490;2023-07-08T01:12:19;6.45;;;2.03;;
41446;SDS011;27185;52.040;4.490;2023-07-08T01:15:10;3.85;;;1.60;;
41446;SDS011;27185;52.040;4.490;2023-07-08T01:17:56;4.38;;;1.55;;
41446;SDS011;27185;52.040;4.490;2023-07-08T01:20:42;5.25;;;2.33;;
41446;SDS011;27185;52.040;4.490;2023-07-08T01:23:28;6.53;;;1.70;;
41446;SDS011;27185;52.040;4.490;2023-07-08T01:26:15;3.40;;;1.60;;
41446;SDS011;27185;52.040;4.490;2023-07-08T01:29:01;2.42;;;1.45;;
41446;SDS011;27185;52.040;4.490;2023-07-08T01:31:47;4.07;;;1.70;;
41446;SDS011;27185;52.040;4.490;2023-07-08T01:34:34;3.65;;;1.38;;
41446;SDS011;27185;52.040;4.490;2023-07-08T01:37:21;3.72;;;1.75;;
41446;SDS011;27185;52.040;4.490;2023-07-08T01:40:13;3.70;;;1.55;;
41446;SDS011;27185;52.040;4.490;2023-07-08T01:43:00;3.40;;;1.70;;
41446;SDS011;27185;52.040;4.490;2023-07-08T01:45:47;4.40;;;1.50;;
41446;SDS011;27185;52.040;4.490;2023-07-08T01:48:35;4.75;;;1.40;;
41446;SDS011;27185;52.040;4.490;2023-07-08T01:51:24;5.13;;;1.90;;
41446;SDS011;27185;52.040;4.490;2023-07-08T01:54:11;3.70;;;1.98;;
41446;SDS011;27185;52.040;4.490;2023-07-08T01:56:57;2.92;;;1.60;;
41446;SDS011;27185;52.040;4.490;2023-07-08T01:59:43;2.65;;;1.73;;
41446;SDS011;27185;52.040;4.490;2023-07-08T02:02:29;2.60;;;1.75;;
41446;SDS011;27185;52.040;4.490;2023-07-08T02:05:15;4.82;;;2.08;;
41446;SDS011;27185;52.040;4.490;2023-07-08T02:08:00;4.35;;;2.00;;
41446;SDS011;27185;52.040;4.490;2023-07-08T02:10:49;3.38;;;1.58;;
41446;SDS011;27185;52.040;4.490;2023-07-08T02:13:36;7.45;;;1.90;;
41446;SDS011;27185;52.040;4.490;2023-07-08T02:16:22;3.70;;;1.85;;
41446;SDS011;27185;52.040;4.490;2023-07-08T02:19:07;3.10;;;1.40;;
41446;SDS011;27185;52.040;4.490;2023-07-08T02:21:53;4.35;;;1.60;;
41446;SDS011;27185;52.040;4.490;2023-07-08T02:24:39;2.80;;;1.83;;
41446;SDS011;27185;52.040;4.490;2023-07-08T02:27:25;3.92;;;1.70;;
41446;SDS011;27185;52.040;4.490;2023-07-08T02:30:11;6.35;;;1.90;;
41446;SDS011;27185;52.040;4.490;2023-07-08T02:32:56;2.55;;;1.60;;
41446;SDS011;27185;52.040;4.490;2023-07-08T02:35:42;2.35;;;1.40;;
41446;SDS011;27185;52.040;4.490;2023-07-08T02:38:27;3.13;;;1.83;;
41446;SDS011;27185;52.040;4.490;2023-07-08T02:41:13;4.63;;;2.00;;
41446;SDS011;27185;52.040;4.490;2023-07-08T02:43:58;4.85;;;1.80;;
41446;SDS011;27185;52.040;4.490;2023-07-08T02:46:44;2.85;;;1.90;;
41446;SDS011;27185;52.040;4.490;2023-07-08T02:49:30;3.20;;;1.58;;
41446;SDS011;27185;52.040;4.490;2023-07-08T02:52:15;5.75;;;1.90;;
41446;SDS011;27185;52.040;4.490;2023-07-08T02:55:01;3.58;;;2.03;;
41446;SDS011;27185;52.040;4.490;2023-07-08T02:57:47;3.10;;;1.95;;
41446;SDS011;27185;52.040;4.490;2023-07-08T03:00:32;5.47;;;1.90;;
41446;SDS011;27185;52.040;4.490;2023-07-08T03:03:18;3.45;;;2.10;;
41446;SDS011;27185;52.040;4.490;2023-07-08T03:06:04;3.03;;;1.52;;
41446;SDS011;27185;52.040;4.490;2023-07-08T03:08:50;3.78;;;2.45;;
41446;SDS011;27185;52.040;4.490;2023-07-08T03:11:36;4.70;;;2.08;;
41446;SDS011;27185;52.040;4.490;2023-07-08T03:14:21;4.20;;;2.20;;
41446;SDS011;27185;52.040;4.490;2023-07-08T03:17:07;3.40;;;1.75;;
41446;SDS011;27185;52.040;4.490;2023-07-08T03:19:53;2.88;;;1.83;;
41446;SDS011;27185;52.040;4.490;2023-07-08T03:22:38;3.47;;;2.08;;
41446;SDS011;27185;52.040;4.490;2023-07-08T03:25:24;4.03;;;2.05;;
41446;SDS011;27185;52.040;4.490;2023-07-08T03:28:10;3.55;;;2.20;;
41446;SDS011;27185;52.040;4.490;2023-07-08T03:30:59;5.97;;;2.30;;
41446;SDS011;27185;52.040;4.490;2023-07-08T03:33:45;4.35;;;2.25;;
41446;SDS011;27185;52.040;4.490;2023-07-08T03:36:31;3.83;;;2.00;;
41446;SDS011;27185;52.040;4.490;2023-07-08T03:39:17;3.15;;;1.95;;
41446;SDS011;27185;52.040;4.490;2023-07-08T03:42:04;4.35;;;2.03;;
41446;SDS011;27185;52.040;4.490;2023-07-08T03:44:50;4.60;;;2.10;;
41446;SDS011;27185;52.040;4.490;2023-07-08T03:47:35;5.40;;;1.98;;
41446;SDS011;27185;52.040;4.490;2023-07-08T03:50:23;3.05;;;1.85;;
41446;SDS011;27185;52.040;4.490;2023-07-08T03:53:09;4.65;;;2.13;;
41446;SDS011;27185;52.040;4.490;2023-07-08T03:55:55;3.47;;;1.88;;
41446;SDS011;27185;52.040;4.490;2023-07-08T03:58:41;5.32;;;1.90;;
41446;SDS011;27185;52.040;4.490;2023-07-08T04:01:28;9.15;;;2.67;;
41446;SDS011;27185;52.040;4.490;2023-07-08T04:04:14;3.70;;;2.22;;
41446;SDS011;27185;52.040;4.490;2023-07-08T04:07:00;5.35;;;2.30;;
41446;SDS011;27185;52.040;4.490;2023-07-08T04:09:46;5.65;;;2.30;;
41446;SDS011;27185;52.040;4.490;2023-07-08T04:12:36;5.63;;;2.35;;
41446;SDS011;27185;52.040;4.490;2023-07-08T04:15:22;4.03;;;2.00;;
41446;SDS011;27185;52.040;4.490;2023-07-08T04:18:13;8.05;;;2.55;;
41446;SDS011;27185;52.040;4.490;2023-07-08T04:20:58;3.75;;;2.53;;
41446;SDS011;27185;52.040;4.490;2023-07-08T04:23:44;3.67;;;2.03;;
41446;SDS011;27185;52.040;4.490;2023-07-08T04:26:30;4.10;;;2.40;;
41446;SDS011;27185;52.040;4.490;2023-07-08T04:29:16;2.78;;;1.77;;
41446;SDS011;27185;52.040;4.490;2023-07-08T04:32:05;3.80;;;2.28;;
41446;SDS011;27185;52.040;4.490;2023-07-08T04:34:51;3.97;;;2.30;;
41446;SDS011;27185;52.040;4.490;2023-07-08T04:37:37;4.63;;;2.42;;
41446;SDS011;27185;52.040;4.490;2023-07-08T04:40:23;4.75;;;2.40;;
41446;SDS011;27185;52.040;4.490;2023-07-08T04:43:09;4.38;;;2.33;;
41446;SDS011;27185;52.040;4.490;2023-07-08T04:45:55;5.10;;;2.83;;
41446;SDS011;27185;52.040;4.490;2023-07-08T04:48:41;3.90;;;2.30;;
41446;SDS011;27185;52.040;4.490;2023-07-08T04:51:27;3.90;;;2.17;;
41446;SDS011;27185;52.040;4.490;2023-07-08T04:54:13;3.38;;;2.58;;
41446;SDS011;27185;52.040;4.490;2023-07-08T04:56:58;6.05;;;2.30;;
41446;SDS011;27185;52.040;4.490;2023-07-08T04:59:44;3.97;;;2.50;;
41446;SDS011;27185;52.040;4.490;2023-07-08T05:02:29;3.78;;;2.13;;
41446;SDS011;27185;52.040;4.490;2023-07-08T05:05:15;6.13;;;2.53;;
41446;SDS011;27185;52.040;4.490;2023-07-08T05:08:01;4.35;;;2.15;;
41446;SDS011;27185;52.040;4.490;2023-07-08T05:10:46;4.05;;;2.22;;
41446;SDS011;27185;52.040;4.490;2023-07-08T05:13:32;5.55;;;1.98;;
41446;SDS011;27185;52.040;4.490;2023-07-08T05:16:17;3.80;;;1.85;;
41446;SDS011;27185;52.040;4.490;2023-07-08T05:19:03;4.50;;;2.33;;
41446;SDS011;27185;52.040;4.490;2023-07-08T05:21:49;3.78;;;2.50;;
41446;SDS011;27185;52.040;4.490;2023-07-08T05:24:34;5.85;;;2.20;;
41446;SDS011;27185;52.040;4.490;2023-07-08T05:27:22;3.58;;;2.10;;
41446;SDS011;27185;52.040;4.490;2023-07-08T05:30:10;5.80;;;2.58;;
41446;SDS011;27185;52.040;4.490;2023-07-08T05:32:59;4.15;;;2.15;;
41446;SDS011;27185;52.040;4.490;2023-07-08T05:35:45;3.35;;;1.90;;
41446;SDS011;27185;52.040;4.490;2023-07-08T05:38:30;4.03;;;2.55;;
41446;SDS011;27185;52.040;4.490;2023-07-08T05:41:16;4.95;;;2.38;;
41446;SDS011;27185;52.040;4.490;2023-07-08T05:44:02;5.70;;;2.47;;
41446;SDS011;27185;52.040;4.490;2023-07-08T05:46:49;2.60;;;1.83;;
41446;SDS011;27185;52.040;4.490;2023-07-08T05:49:35;8.27;;;2.47;;
41446;SDS011;27185;52.040;4.490;2023-07-08T05:52:20;3.05;;;2.00;;
41446;SDS011;27185;52.040;4.490;2023-07-08T05:55:06;4.18;;;1.83;;
41446;SDS011;27185;52.040;4.490;2023-07-08T05:57:52;5.68;;;2.72;;
41446;SDS011;27185;52.040;4.490;2023-07-08T06:00:38;3.53;;;2.22;;
41446;SDS011;27185;52.040;4.490;2023-07-08T06:03:23;5.63;;;2.00;;
41446;SDS011;27185;52.040;4.490;2023-07-08T06:06:09;4.88;;;2.35;;
41446;SDS011;27185;52.040;4.490;2023-07-08T06:08:55;4.10;;;2.00;;
41446;SDS011;27185;52.040;4.490;2023-07-08T06:11:40;3.00;;;2.05;;
41446;SDS011;27185;52.040;4.490;2023-07-08T06:14:26;2.85;;;1.92;;
41446;SDS011;27185;52.040;4.490;2023-07-08T06:17:13;4.25;;;2.20;;
41446;SDS011;27185;52.040;4.490;2023-07-08T06:19:58;4.05;;;2.38;;
41446;SDS011;27185;52.040;4.490;2023-07-08T06:22:44;4.38;;;1.92;;
41446;SDS011;27185;52.040;4.490;2023-07-08T06:25:29;3.25;;;2.17;;
41446;SDS011;27185;52.040;4.490;2023-07-08T06:28:15;3.40;;;1.92;;
41446;SDS011;27185;52.040;4.490;2023-07-08T06:31:00;3.88;;;2.35;;
41446;SDS011;27185;52.040;4.490;2023-07-08T06:33:46;5.57;;;2.28;;
41446;SDS011;27185;52.040;4.490;2023-07-08T06:36:32;5.80;;;2.63;;
41446;SDS011;27185;52.040;4.490;2023-07-08T06:39:18;3.55;;;2.22;;
41446;SDS011;27185;52.040;4.490;2023-07-08T06:42:04;5.88;;;2.58;;
41446;SDS011;27185;52.040;4.490;2023-07-08T06:44:50;4.18;;;2.22;;
41446;SDS011;27185;52.040;4.490;2023-07-08T06:47:36;6.63;;;2.70;;
41446;SDS011;27185;52.040;4.490;2023-07-08T06:50:22;4.28;;;2.40;;
41446;SDS011;27185;52.040;4.490;2023-07-08T06:53:07;2.83;;;1.75;;
41446;SDS011;27185;52.040;4.490;2023-07-08T06:55:53;6.60;;;2.78;;
41446;SDS011;27185;52.040;4.490;2023-07-08T06:58:39;3.58;;;1.90;;
41446;SDS011;27185;52.040;4.490;2023-07-08T07:01:24;4.88;;;1.90;;
41446;SDS011;27185;52.040;4.490;2023-07-08T07:04:10;3.83;;;2.03;;
41446;SDS011;27185;52.040;4.490;2023-07-08T07:06:55;5.40;;;2.38;;
41446;SDS011;27185;52.040;4.490;2023-07-08T07:09:41;4.32;;;2.38;;
41446;SDS011;27185;52.040;4.490;2023-07-08T07:12:27;5.57;;;2.38;;
41446;SDS011;27185;52.040;4.490;2023-07-08T07:15:12;6.35;;;2.10;;
41446;SDS011;27185;52.040;4.490;2023-07-08T07:17:58;3.15;;;1.75;;
41446;SDS011;27185;52.040;4.490;2023-07-08T07:20:53;4.47;;;1.90;;
41446;SDS011;27185;52.040;4.490;2023-07-08T07:23:40;3.90;;;1.98;;
41446;SDS011;27185;52.040;4.490;2023-07-08T07:26:25;2.67;;;1.60;;
41446;SDS011;27185;52.040;4.490;2023-07-08T07:29:11;3.67;;;1.92;;
41446;SDS011;27185;52.040;4.490;2023-07-08T07:31:58;5.25;;;2.40;;
41446;SDS011;27185;52.040;4.490;2023-07-08T07:34:47;3.75;;;1.88;;
41446;SDS011;27185;52.040;4.490;2023-07-08T07:37:34;4.07;;;1.90;;
41446;SDS011;27185;52.040;4.490;2023-07-08T07:40:19;6.13;;;1.95;;
41446;SDS011;27185;52.040;4.490;2023-07-08T07:43:05;6.10;;;2.08;;
41446;SDS011;27185;52.040;4.490;2023-07-08T07:45:52;6.30;;;2.42;;
41446;SDS011;27185;52.040;4.490;2023-07-08T07:48:37;3.65;;;2.08;;
41446;SDS011;27185;52.040;4.490;2023-07-08T07:51:23;4.10;;;2.22;;
41446;SDS011;27185;52.040;4.490;2023-07-08T07:54:09;5.53;;;2.08;;
41446;SDS011;27185;52.040;4.490;2023-07-08T07:56:55;2.83;;;1.67;;
41446;SDS011;27185;52.040;4.490;2023-07-08T07:59:40;7.60;;;2.47;;
41446;SDS011;27185;52.040;4.490;2023-07-08T08:02:26;3.63;;;2.13;;
41446;SDS011;27185;52.040;4.490;2023-07-08T08:05:11;5.30;;;2.45;;
41446;SDS011;27185;52.040;4.490;2023-07-08T08:07:57;5.35;;;2.65;;
41446;SDS011;27185;52.040;4.490;2023-07-08T08:10:43;3.50;;;1.95;;
41446;SDS011;27185;52.040;4.490;2023-07-08T08:13:29;4.15;;;2.50;;
41446;SDS011;27185;52.040;4.490;2023-07-08T08:16:14;4.70;;;1.95;;
41446;SDS011;27185;52.040;4.490;2023-07-08T08:19:00;8.23;;;2.63;;
41446;SDS011;27185;52.040;4.490;2023-07-08T08:21:45;6.70;;;2.75;;
41446;SDS011;27185;52.040;4.490;2023-07-08T08:24:31;4.28;;;2.60;;
41446;SDS011;27185;52.040;4.490;2023-07-08T08:27:18;5.60;;;2.72;;
41446;SDS011;27185;52.040;4.490;2023-07-08T08:30:04;4.47;;;2.35;;
41446;SDS011;27185;52.040;4.490;2023-07-08T08:32:51;6.25;;;2.60;;
41446;SDS011;27185;52.040;4.490;2023-07-08T08:35:36;8.00;;;3.20;;
41446;SDS011;27185;52.040;4.490;2023-07-08T08:38:22;3.97;;;2.03;;
41446;SDS011;27185;52.040;4.490;2023-07-08T08:41:15;5.60;;;2.60;;
41446;SDS011;27185;52.040;4.490;2023-07-08T08:44:03;8.68;;;3.72;;
41446;SDS011;27185;52.040;4.490;2023-07-08T08:46:57;4.85;;;3.20;;
41446;SDS011;27185;52.040;4.490;2023-07-08T08:49:47;4.75;;;3.33;;
41446;SDS011;27185;52.040;4.490;2023-07-08T08:52:41;3.78;;;2.55;;
41446;SDS011;27185;52.040;4.490;2023-07-08T08:55:27;5.03;;;3.10;;
41446;SDS011;27185;52.040;4.490;2023-07-08T08:58:26;3.70;;;2.72;;
41446;SDS011;27185;52.040;4.490;2023-07-08T09:01:20;4.32;;;2.53;;
41446;SDS011;27185;52.040;4.490;2023-07-08T09:04:11;4.68;;;2.60;;
41446;SDS011;27185;52.040;4.490;2023-07-08T09:07:06;5.20;;;2.70;;
41446;SDS011;27185;52.040;4.490;2023-07-08T09:10:48;4.95;;;2.88;;
41446;SDS011;27185;52.040;4.490;2023-07-08T09:16:34;5.75;;;2.80;;
41446;SDS011;27185;52.040;4.490;2023-07-08T09:19:30;5.38;;;3.00;;
41446;SDS011;27185;52.040;4.490;2023-07-08T09:22:34;6.22;;;2.97;;
41446;SDS011;27185;52.040;4.490;2023-07-08T09:28:16;4.22;;;2.85;;
41446;SDS011;27185;52.040;4.490;2023-07-08T09:31:01;6.70;;;2.95;;
41446;SDS011;27185;52.040;4.490;2023-07-08T09:33:51;4.80;;;3.08;;
41446;SDS011;27185;52.040;4.490;2023-07-08T09:36:39;5.38;;;3.22;;
41446;SDS011;27185;52.040;4.490;2023-07-08T09:39:27;5.05;;;3.20;;
41446;SDS011;27185;52.040;4.490;2023-07-08T09:42:15;5.82;;;2.88;;
41446;SDS011;27185;52.040;4.490;2023-07-08T09:45:03;7.13;;;3.60;;
41446;SDS011;27185;52.040;4.490;2023-07-08T09:47:56;9.43;;;3.40;;
41446;SDS011;27185;52.040;4.490;2023-07-08T09:50:43;5.13;;;3.30;;
41446;SDS011;27185;52.040;4.490;2023-07-08T09:53:29;5.00;;;2.88;;
41446;SDS011;27185;52.040;4.490;2023-07-08T09:56:15;6.22;;;3.95;;
41446;SDS011;27185;52.040;4.490;2023-07-08T09:59:01;4.40;;;2.63;;
41446;SDS011;27185;52.040;4.490;2023-07-08T10:01:46;4.35;;;2.85;;
41446;SDS011;27185;52.040;4.490;2023-07-08T10:04:32;6.22;;;3.17;;
41446;SDS011;27185;52.040;4.490;2023-07-08T10:07:18;7.90;;;3.17;;
41446;SDS011;27185;52.040;4.490;2023-07-08T10:10:06;5.63;;;2.88;;
41446;SDS011;27185;52.040;4.490;2023-07-08T10:13:03;3.90;;;2.97;;
41446;SDS011;27185;52.040;4.490;2023-07-08T10:15:59;5.68;;;3.30;;
41446;SDS011;27185;52.040;4.490;2023-07-08T10:18:57;4.10;;;2.67;;
41446;SDS011;27185;52.040;4.490;2023-07-08T10:28:00;7.22;;;3.50;;
41446;SDS011;27185;52.040;4.490;2023-07-08T10:34:17;10.35;;;3.17;;
41446;SDS011;27185;52.040;4.490;2023-07-08T10:37:11;5.40;;;3.05;;
41446;SDS011;27185;52.040;4.490;2023-07-08T11:01:17;8.88;;;3.72;;
41446;SDS011;27185;52.040;4.490;2023-07-08T11:04:07;5.93;;;2.78;;
41446;SDS011;27185;52.040;4.490;2023-07-08T11:07:19;5.03;;;3.50;;
41446;SDS011;27185;52.040;4.490;2023-07-08T11:13:20;6.18;;;3.60;;
41446;SDS011;27185;52.040;4.490;2023-07-08T11:16:17;6.35;;;4.00;;
41446;SDS011;27185;52.040;4.490;2023-07-08T11:19:36;5.38;;;3.30;;
41446;SDS011;27185;52.040;4.490;2023-07-08T11:22:27;4.70;;;3.13;;
41446;SDS011;27185;52.040;4.490;2023-07-08T11:25:18;4.80;;;3.47;;
41446;SDS011;27185;52.040;4.490;2023-07-08T11:28:06;5.95;;;3.95;;
41446;SDS011;27185;52.040;4.490;2023-07-08T11:31:00;4.70;;;3.30;;
41446;SDS011;27185;52.040;4.490;2023-07-08T11:33:47;5.55;;;3.55;;
41446;SDS011;27185;52.040;4.490;2023-07-08T11:36:33;6.27;;;3.67;;
41446;SDS011;27185;52.040;4.490;2023-07-08T11:39:27;5.70;;;4.18;;
41446;SDS011;27185;52.040;4.490;2023-07-08T11:42:22;5.97;;;3.67;;
41446;SDS011;27185;52.040;4.490;2023-07-08T11:51:03;7.05;;;4.43;;
41446;SDS011;27185;52.040;4.490;2023-07-08T11:53:57;7.60;;;4.50;;
41446;SDS011;27185;52.040;4.490;2023-07-08T11:57:04;6.53;;;3.50;;
41446;SDS011;27185;52.040;4.490;2023-07-08T12:00:05;6.20;;;4.18;;
41446;SDS011;27185;52.040;4.490;2023-07-08T12:09:23;4.90;;;3.55;;
41446;SDS011;27185;52.040;4.490;2023-07-08T12:12:23;5.72;;;4.15;;
41446;SDS011;27185;52.040;4.490;2023-07-08T12:15:18;7.47;;;4.38;;
41446;SDS011;27185;52.040;4.490;2023-07-08T12:18:14;8.02;;;4.07;;
41446;SDS011;27185;52.040;4.490;2023-07-08T12:21:05;5.95;;;4.57;;
41446;SDS011;27185;52.040;4.490;2023-07-08T12:23:53;6.30;;;4.72;;
41446;SDS011;27185;52.040;4.490;2023-07-08T12:29:25;5.15;;;3.55;;
41446;SDS011;27185;52.040;4.490;2023-07-08T12:32:11;5.97;;;3.60;;
41446;SDS011;27185;52.040;4.490;2023-07-08T12:34:58;6.35;;;3.60;;
41446;SDS011;27185;52.040;4.490;2023-07-08T12:37:45;4.72;;;3.53;;
41446;SDS011;27185;52.040;4.490;2023-07-08T12:40:30;5.45;;;3.85;;
41446;SDS011;27185;52.040;4.490;2023-07-08T12:43:16;5.13;;;3.47;;
41446;SDS011;27185;52.040;4.490;2023-07-08T12:46:03;8.15;;;3.90;;
41446;SDS011;27185;52.040;4.490;2023-07-08T12:48:49;6.85;;;3.65;;
41446;SDS011;27185;52.040;4.490;2023-07-08T12:51:34;4.93;;;3.40;;
41446;SDS011;27185;52.040;4.490;2023-07-08T12:54:20;5.40;;;3.63;;
41446;SDS011;27185;52.040;4.490;2023-07-08T12:59:53;5.28;;;3.78;;
41446;SDS011;27185;52.040;4.490;2023-07-08T13:02:40;4.82;;;3.60;;
41446;SDS011;27185;52.040;4.490;2023-07-08T13:05:29;6.72;;;3.65;;
41446;SDS011;27185;52.040;4.490;2023-07-08T13:08:17;5.47;;;2.97;;
41446;SDS011;27185;52.040;4.490;2023-07-08T13:11:05;3.88;;;2.83;;
41446;SDS011;27185;52.040;4.490;2023-07-08T13:16:41;5.57;;;3.38;;
41446;SDS011;27185;52.040;4.490;2023-07-08T13:19:27;3.92;;;2.70;;
41446;SDS011;27185;52.040;4.490;2023-07-08T13:22:17;4.18;;;3.33;;
41446;SDS011;27185;52.040;4.490;2023-07-08T13:25:09;5.57;;;3.47;;
41446;SDS011;27185;52.040;4.490;2023-07-08T13:28:02;4.45;;;2.75;;
41446;SDS011;27185;52.040;4.490;2023-07-08T13:31:02;4.53;;;3.20;;
41446;SDS011;27185;52.040;4.490;2023-07-08T13:34:05;5.10;;;2.78;;
41446;SDS011;27185;52.040;4.490;2023-07-08T13:36:52;4.75;;;3.08;;
41446;SDS011;27185;52.040;4.490;2023-07-08T13:39:42;5.15;;;3.00;;
41446;SDS011;27185;52.040;4.490;2023-07-08T13:42:29;6.25;;;3.28;;
41446;SDS011;27185;52.040;4.490;2023-07-08T13:45:16;4.77;;;2.63;;
41446;SDS011;27185;52.040;4.490;2023-07-08T13:48:19;4.30;;;2.63;;
41446;SDS011;27185;52.040;4.490;2023-07-08T13:54:23;7.05;;;2.75;;
41446;SDS011;27185;52.040;4.490;2023-07-08T13:57:18;3.90;;;2.65;;
41446;SDS011;27185;52.040;4.490;2023-07-08T14:00:05;4.15;;;2.50;;
41446;SDS011;27185;52.040;4.490;2023-07-08T14:02:53;5.63;;;2.70;;
41446;SDS011;27185;52.040;4.490;2023-07-08T14:05:38;4.20;;;2.92;;
41446;SDS011;27185;52.040;4.490;2023-07-08T14:08:24;5.18;;;2.33;;
41446;SDS011;27185;52.040;4.490;2023-07-08T14:11:10;5.13;;;3.65;;
41446;SDS011;27185;52.040;4.490;2023-07-08T14:13:55;5.38;;;3.38;;
41446;SDS011;27185;52.040;4.490;2023-07-08T14:16:42;12.70;;;11.40;;
41446;SDS011;27185;52.040;4.490;2023-07-08T14:19:33;39.22;;;30.35;;
41446;SDS011;27185;52.040;4.490;2023-07-08T14:22:27;17.73;;;15.63;;
41446;SDS011;27185;52.040;4.490;2023-07-08T14:25:14;13.75;;;9.77;;
41446;SDS011;27185;52.040;4.490;2023-07-08T14:28:00;9.27;;;8.30;;
41446;SDS011;27185;52.040;4.490;2023-07-08T14:30:47;6.00;;;4.28;;
41446;SDS011;27185;52.040;4.490;2023-07-08T14:33:33;7.55;;;4.25;;
41446;SDS011;27185;52.040;4.490;2023-07-08T14:36:19;7.53;;;4.03;;
41446;SDS011;27185;52.040;4.490;2023-07-08T14:39:11;6.20;;;5.43;;
41446;SDS011;27185;52.040;4.490;2023-07-08T14:41:58;6.38;;;4.10;;
41446;SDS011;27185;52.040;4.490;2023-07-08T14:44:44;6.43;;;5.22;;
41446;SDS011;27185;52.040;4.490;2023-07-08T14:47:33;5.82;;;4.03;;
41446;SDS011;27185;52.040;4.490;2023-07-08T14:50:18;7.18;;;4.10;;
41446;SDS011;27185;52.040;4.490;2023-07-08T14:53:04;6.50;;;3.70;;
41446;SDS011;27185;52.040;4.490;2023-07-08T14:55:54;6.45;;;3.90;;
41446;SDS011;27185;52.040;4.490;2023-07-08T14:58:43;7.30;;;5.00;;
41446;SDS011;27185;52.040;4.490;2023-07-08T15:01:30;20.50;;;14.10;;
41446;SDS011;27185;52.040;4.490;2023-07-08T15:04:17;10.00;;;6.97;;
41446;SDS011;27185;52.040;4.490;2023-07-08T15:07:04;7.93;;;6.70;;
41446;SDS011;27185;52.040;4.490;2023-07-08T15:09:53;9.77;;;8.77;;
41446;SDS011;27185;52.040;4.490;2023-07-08T15:12:39;5.93;;;4.70;;
41446;SDS011;27185;52.040;4.490;2023-07-08T15:15:34;7.47;;;4.38;;
41446;SDS011;27185;52.040;4.490;2023-07-08T15:18:24;6.00;;;4.00;;
41446;SDS011;27185;52.040;4.490;2023-07-08T15:21:11;8.05;;;4.00;;
41446;SDS011;27185;52.040;4.490;2023-07-08T15:23:57;4.72;;;3.75;;
41446;SDS011;27185;52.040;4.490;2023-07-08T15:26:44;6.00;;;4.07;;
41446;SDS011;27185;52.040;4.490;2023-07-08T15:29:32;5.28;;;3.92;;
41446;SDS011;27185;52.040;4.490;2023-07-08T15:32:18;6.95;;;4.25;;
41446;SDS011;27185;52.040;4.490;2023-07-08T15:35:09;7.68;;;4.07;;
41446;SDS011;27185;52.040;4.490;2023-07-08T15:37:57;5.50;;;4.15;;
41446;SDS011;27185;52.040;4.490;2023-07-08T15:40:44;5.88;;;4.18;;
41446;SDS011;27185;52.040;4.490;2023-07-08T15:43:29;5.28;;;3.97;;
41446;SDS011;27185;52.040;4.490;2023-07-08T15:46:15;7.30;;;4.82;;
41446;SDS011;27185;52.040;4.490;2023-07-08T15:49:07;7.47;;;4.72;;
41446;SDS011;27185;52.040;4.490;2023-07-08T15:52:12;7.20;;;5.40;;
41446;SDS011;27185;52.040;4.490;2023-07-08T15:54:57;6.80;;;4.43;;
41446;SDS011;27185;52.040;4.490;2023-07-08T15:57:44;6.07;;;4.72;;
41446;SDS011;27185;52.040;4.490;2023-07-08T16:00:36;9.80;;;4.85;;
41446;SDS011;27185;52.040;4.490;2023-07-08T16:03:24;6.30;;;4.00;;
41446;SDS011;27185;52.040;4.490;2023-07-08T16:06:12;8.10;;;4.60;;
41446;SDS011;27185;52.040;4.490;2023-07-08T16:08:57;5.90;;;4.57;;
41446;SDS011;27185;52.040;4.490;2023-07-08T16:11:43;7.93;;;4.82;;
41446;SDS011;27185;52.040;4.490;2023-07-08T16:14:29;7.70;;;5.53;;
41446;SDS011;27185;52.040;4.490;2023-07-08T16:17:14;8.40;;;4.65;;
41446;SDS011;27185;52.040;4.490;2023-07-08T16:20:00;6.10;;;4.47;;
41446;SDS011;27185;52.040;4.490;2023-07-08T16:22:46;7.32;;;4.43;;
41446;SDS011;27185;52.040;4.490;2023-07-08T16:25:33;5.70;;;4.55;;
41446;SDS011;27185;52.040;4.490;2023-07-08T16:28:38;7.97;;;4.75;;
41446;SDS011;27185;52.040;4.490;2023-07-08T16:31:27;8.05;;;4.82;;
41446;SDS011;27185;52.040;4.490;2023-07-08T16:34:13;8.05;;;6.32;;
41446;SDS011;27185;52.040;4.490;2023-07-08T16:36:59;9.75;;;5.90;;
41446;SDS011;27185;52.040;4.490;2023-07-08T16:39:45;8.38;;;5.45;;
41446;SDS011;27185;52.040;4.490;2023-07-08T16:42:30;9.00;;;5.13;;
41446;SDS011;27185;52.040;4.490;2023-07-08T16:45:17;7.20;;;5.18;;
41446;SDS011;27185;52.040;4.490;2023-07-08T16:48:04;7.28;;;4.75;;
41446;SDS011;27185;52.040;4.490;2023-07-08T16:50:49;7.95;;;5.15;;
41446;SDS011;27185;52.040;4.490;2023-07-08T16:53:35;9.45;;;7.20;;
41446;SDS011;27185;52.040;4.490;2023-07-08T16:56:21;9.13;;;6.55;;
41446;SDS011;27185;52.040;4.490;2023-07-08T16:59:06;10.48;;;6.90;;
41446;SDS011;27185;52.040;4.490;2023-07-08T17:01:52;6.93;;;5.63;;
41446;SDS011;27185;52.040;4.490;2023-07-08T17:04:38;10.43;;;5.60;;
41446;SDS011;27185;52.040;4.490;2023-07-08T17:07:24;12.25;;;6.38;;
41446;SDS011;27185;52.040;4.490;2023-07-08T17:10:09;8.10;;;5.00;;
41446;SDS011;27185;52.040;4.490;2023-07-08T17:12:55;8.45;;;5.32;;
41446;SDS011;27185;52.040;4.490;2023-07-08T17:15:42;8.27;;;5.65;;
41446;SDS011;27185;52.040;4.490;2023-07-08T17:18:27;7.57;;;5.57;;
41446;SDS011;27185;52.040;4.490;2023-07-08T17:21:14;6.57;;;5.68;;
41446;SDS011;27185;52.040;4.490;2023-07-08T17:24:00;8.55;;;4.88;;
41446;SDS011;27185;52.040;4.490;2023-07-08T17:26:46;9.48;;;5.28;;
41446;SDS011;27185;52.040;4.490;2023-07-08T17:29:31;5.90;;;4.90;;
41446;SDS011;27185;52.040;4.490;2023-07-08T17:32:17;5.70;;;4.32;;
41446;SDS011;27185;52.040;4.490;2023-07-08T17:35:03;7.50;;;4.35;;
41446;SDS011;27185;52.040;4.490;2023-07-08T17:37:49;6.05;;;4.38;;
41446;SDS011;27185;52.040;4.490;2023-07-08T17:40:35;7.15;;;4.60;;
41446;SDS011;27185;52.040;4.490;2023-07-08T17:43:20;6.50;;;4.18;;
41446;SDS011;27185;52.040;4.490;2023-07-08T17:46:10;5.32;;;4.68;;
41446;SDS011;27185;52.040;4.490;2023-07-08T17:48:59;8.05;;;5.70;;
41446;SDS011;27185;52.040;4.490;2023-07-08T17:51:46;7.18;;;4.50;;
41446;SDS011;27185;52.040;4.490;2023-07-08T17:57:18;6.47;;;4.60;;
41446;SDS011;27185;52.040;4.490;2023-07-08T18:00:06;8.50;;;4.78;;
41446;SDS011;27185;52.040;4.490;2023-07-08T18:02:58;8.70;;;4.38;;
41446;SDS011;27185;52.040;4.490;2023-07-08T18:05:44;6.57;;;4.00;;